Time;durP1;ratioP1;P1;durP2;ratioP2;P2;SDS_P1;SDS_P2;PMS_P1;PMS_P2;Temp;Humidity;BMP_temperature;BMP_pressure;BME280_temperature;BME280_humidity;BME280_pressure;Samples;Min_cycle;Max_cycle;Signal;HPM_P1;HPM_P2
2023/05/28 00:02:10;;;;;;;0.10;0.10;;;15.70;99.90;;;;;;5074226;28;20215;-80
2023/05/28 00:04:35;;;;;;;0.10;0.10;;;15.70;99.90;;;;;;5076495;28;20661;-80
2023/05/28 00:07:01;;;;;;;0.10;0.10;;;15.70;99.90;;;;;;5076758;28;20176;-81
2023/05/28 00:09:26;;;;;;;0.10;0.10;;;15.70;99.90;;;;;;5075813;28;20757;-81
2023/05/28 00:11:52;;;;;;;0.10;0.10;;;15.60;99.90;;;;;;5076341;28;20226;-80
2023/05/28 00:14:18;;;;;;;0.10;0.10;;;15.60;99.90;;;;;;5075039;28;20535;-81
2023/05/28 00:16:44;;;;;;;0.10;0.10;;;15.60;99.90;;;;;;5077717;28;20199;-81
2023/05/28 00:19:10;;;;;;;0.10;0.10;;;15.50;99.90;;;;;;5074841;28;20212;-81
2023/05/28 00:21:36;;;;;;;0.10;0.10;;;15.50;99.90;;;;;;5076875;28;20228;-81
2023/05/28 00:24:02;;;;;;;0.10;0.10;;;15.50;99.90;;;;;;5077755;28;20606;-80
2023/05/28 00:26:28;;;;;;;0.10;0.10;;;15.40;99.90;;;;;;5076614;28;20188;-81
2023/05/28 00:28:54;;;;;;;0.10;0.10;;;15.40;99.90;;;;;;5074139;28;20181;-80
2023/05/28 00:31:19;;;;;;;0.10;0.10;;;15.40;99.90;;;;;;5075823;28;20191;-80
2023/05/28 00:33:45;;;;;;;0.10;0.10;;;15.40;99.90;;;;;;5074171;28;21249;-80
2023/05/28 00:36:14;;;;;;;0.10;0.10;;;15.30;99.90;;;;;;5076083;28;20195;-81
2023/05/28 00:38:39;;;;;;;0.10;0.10;;;15.30;99.90;;;;;;5075764;28;21399;-80
2023/05/28 00:41:05;;;;;;;0.10;0.10;;;15.30;99.90;;;;;;5077688;28;20271;-80
2023/05/28 00:43:31;;;;;;;0.10;0.10;;;15.30;99.90;;;;;;5074746;28;20207;-80
2023/05/28 00:46:01;;;;;;;0.10;0.10;;;15.30;99.90;;;;;;5074961;28;20188;-81
2023/05/28 00:48:28;;;;;;;0.10;0.10;;;15.30;99.90;;;;;;5075276;28;20653;-81
2023/05/28 00:50:54;;;;;;;0.10;0.10;;;15.30;99.90;;;;;;5075027;28;20204;-80
2023/05/28 00:53:20;;;;;;;0.10;0.10;;;15.20;99.90;;;;;;5073788;28;20212;-80
2023/05/28 00:55:47;;;;;;;0.10;0.10;;;15.10;99.90;;;;;;5074968;28;20216;-80
2023/05/28 00:58:16;;;;;;;0.10;0.10;;;15.00;99.90;;;;;;5074637;28;20188;-81
2023/05/28 01:00:43;;;;;;;0.10;0.10;;;15.00;99.90;;;;;;5073552;28;20189;-81
2023/05/28 01:03:09;;;;;;;0.10;0.10;;;14.90;99.90;;;;;;5075392;28;20214;-80
2023/05/28 01:05:35;;;;;;;0.10;0.10;;;14.80;99.90;;;;;;5077928;28;20255;-80
2023/05/28 01:08:09;;;;;;;0.10;0.10;;;14.60;99.90;;;;;;5077223;28;20215;-80
2023/05/28 01:10:35;;;;;;;0.10;0.10;;;14.60;99.90;;;;;;5079994;28;20280;-80
2023/05/28 01:13:04;;;;;;;0.10;0.10;;;14.40;99.90;;;;;;5081666;28;20529;-80
2023/05/28 01:15:31;;;;;;;0.10;0.10;;;14.40;99.90;;;;;;5079825;28;20181;-79
2023/05/28 01:17:58;;;;;;;0.10;0.10;;;14.40;99.90;;;;;;5077256;28;20286;-80
2023/05/28 01:20:27;;;;;;;0.10;0.10;;;14.40;99.90;;;;;;5078291;28;20192;-80
2023/05/28 01:22:59;;;;;;;0.10;0.10;;;14.40;99.90;;;;;;5078317;28;20619;-81
2023/05/28 01:25:26;;;;;;;0.10;0.10;;;14.30;99.90;;;;;;5078863;28;20216;-80
2023/05/28 01:27:51;;;;;;;0.10;0.10;;;14.30;99.90;;;;;;5080258;28;20195;-80
2023/05/28 01:30:17;;;;;;;0.10;0.10;;;14.10;99.90;;;;;;5079012;28;20208;-81
2023/05/28 01:32:42;;;;;;;0.10;0.10;;;14.00;99.90;;;;;;5078812;28;20204;-80
2023/05/28 01:35:09;;;;;;;0.10;0.10;;;14.00;99.90;;;;;;5080112;28;20180;-80
2023/05/28 01:37:39;;;;;;;0.10;0.10;;;14.00;99.90;;;;;;5077071;28;20192;-80
2023/05/28 01:40:06;;;;;;;0.10;0.10;;;13.90;99.90;;;;;;5078099;28;20198;-80
2023/05/28 01:42:33;;;;;;;0.10;0.10;;;13.80;99.90;;;;;;5077971;28;20216;-80
2023/05/28 01:45:00;;;;;;;0.10;0.10;;;13.80;99.90;;;;;;5077366;28;20635;-79
2023/05/28 01:47:26;;;;;;;0.07;0.07;;;13.60;99.90;;;;;;5076136;28;20333;-80
2023/05/28 01:49:52;;;;;;;0.10;0.10;;;13.50;99.90;;;;;;5078183;28;20235;-80
2023/05/28 01:52:18;;;;;;;0.10;0.10;;;13.40;99.90;;;;;;5078530;28;20323;-80
2023/05/28 01:54:44;;;;;;;0.10;0.10;;;13.40;99.90;;;;;;5077082;28;20191;-80
2023/05/28 01:57:10;;;;;;;0.10;0.10;;;13.40;99.90;;;;;;5079073;28;20540;-80
2023/05/28 01:59:36;;;;;;;0.10;0.10;;;13.40;99.90;;;;;;5077914;28;20201;-80
2023/05/28 02:02:01;;;;;;;0.10;0.10;;;13.30;99.90;;;;;;5079023;28;20911;-81
2023/05/28 02:04:27;;;;;;;0.10;0.10;;;13.40;99.90;;;;;;5078770;28;20188;-80
2023/05/28 02:06:52;;;;;;;0.03;0.03;;;13.50;99.90;;;;;;5078096;28;20182;-80
2023/05/28 02:09:18;;;;;;;0.10;0.10;;;13.50;99.90;;;;;;5075994;28;20294;-80
2023/05/28 02:11:43;;;;;;;0.10;0.10;;;13.50;99.90;;;;;;5078789;28;21107;-80
2023/05/28 02:14:14;;;;;;;0.10;0.10;;;13.40;99.90;;;;;;5079078;28;20192;-80
2023/05/28 02:16:52;;;;;;;0.10;0.10;;;13.30;99.90;;;;;;5076095;28;20192;-80
2023/05/28 02:19:18;;;;;;;0.10;0.10;;;13.20;99.90;;;;;;5076853;28;20183;-80
2023/05/28 02:21:43;;;;;;;0.10;0.10;;;13.10;99.90;;;;;;5077500;28;20173;-80
2023/05/28 02:24:09;;;;;;;0.10;0.10;;;13.00;99.90;;;;;;5078154;28;20229;-79
2023/05/28 02:26:35;;;;;;;0.10;0.10;;;13.00;99.90;;;;;;5079577;28;20552;-82
2023/05/28 02:29:00;;;;;;;0.00;0.00;;;12.90;99.90;;;;;;5079061;28;20233;-80
2023/05/28 02:31:26;;;;;;;0.10;0.10;;;12.90;99.90;;;;;;5080181;28;20187;-81
2023/05/28 02:33:51;;;;;;;0.10;0.10;;;12.90;99.90;;;;;;5079765;28;20247;-81
2023/05/28 02:36:17;;;;;;;0.10;0.10;;;12.80;99.90;;;;;;5079429;28;20246;-81
2023/05/28 02:38:43;;;;;;;0.07;0.07;;;12.80;99.90;;;;;;5078211;28;20257;-82
2023/05/28 02:41:09;;;;;;;0.10;0.10;;;12.80;99.90;;;;;;5080262;28;20179;-81
2023/05/28 02:43:35;;;;;;;0.10;0.10;;;12.80;99.90;;;;;;5094098;28;20781;-81
2023/05/28 02:46:00;;;;;;;0.10;0.10;;;12.80;99.90;;;;;;5079223;28;20271;-80
2023/05/28 02:48:26;;;;;;;0.10;0.10;;;12.70;99.90;;;;;;5077038;28;20212;-81
2023/05/28 02:50:51;;;;;;;0.10;0.10;;;12.70;99.90;;;;;;5077601;28;20500;-81
2023/05/28 02:53:22;;;;;;;0.10;0.10;;;12.60;99.90;;;;;;5078134;28;20194;-81
2023/05/28 02:55:48;;;;;;;0.10;0.10;;;12.50;99.90;;;;;;5077278;28;20749;-81
2023/05/28 02:58:14;;;;;;;0.10;0.10;;;12.40;99.90;;;;;;5078118;28;20178;-81
2023/05/28 03:00:40;;;;;;;0.10;0.10;;;12.40;99.90;;;;;;5077060;28;20186;-81
2023/05/28 03:03:06;;;;;;;0.10;0.10;;;12.40;99.90;;;;;;5080541;28;20242;-81
2023/05/28 03:05:32;;;;;;;0.10;0.10;;;12.40;99.90;;;;;;5076751;28;20196;-81
2023/05/28 03:07:58;;;;;;;0.00;0.00;;;12.40;99.90;;;;;;5080896;28;20189;-82
2023/05/28 03:10:24;;;;;;;0.10;0.10;;;12.30;99.90;;;;;;5078579;28;20261;-81
2023/05/28 03:12:49;;;;;;;0.10;0.10;;;12.20;99.90;;;;;;5078908;28;20541;-81
2023/05/28 03:15:15;;;;;;;0.10;0.10;;;12.20;99.90;;;;;;5077264;28;20884;-81
2023/05/28 03:17:40;;;;;;;0.10;0.10;;;12.20;99.90;;;;;;5079634;28;20222;-81
2023/05/28 03:20:10;;;;;;;0.10;0.10;;;12.10;99.90;;;;;;5077293;28;20185;-81
2023/05/28 03:22:38;;;;;;;0.10;0.10;;;12.10;99.90;;;;;;5076226;28;20350;-81
2023/05/28 03:25:08;;;;;;;0.10;0.10;;;12.10;99.90;;;;;;5078036;28;20212;-83
2023/05/28 03:27:34;;;;;;;0.10;0.10;;;12.20;99.90;;;;;;5076141;28;20218;-81
2023/05/28 03:30:03;;;;;;;0.10;0.10;;;12.20;99.90;;;;;;5079962;28;20276;-81
2023/05/28 03:32:29;;;;;;;0.10;0.10;;;12.30;99.90;;;;;;5075927;28;20201;-81
2023/05/28 03:34:55;;;;;;;0.10;0.10;;;12.50;99.90;;;;;;5077111;28;20260;-81
2023/05/28 03:37:20;;;;;;;0.00;0.00;;;12.50;99.90;;;;;;5078980;28;20196;-81
2023/05/28 03:39:46;;;;;;;0.10;0.10;;;12.40;99.90;;;;;;5078030;28;20585;-81
2023/05/28 03:42:11;;;;;;;0.10;0.10;;;12.40;99.90;;;;;;5077588;28;20214;-81
2023/05/28 03:44:37;;;;;;;0.10;0.10;;;12.70;99.90;;;;;;5075938;28;20189;-82
2023/05/28 03:47:03;;;;;;;0.10;0.10;;;12.90;99.90;;;;;;5077280;28;20231;-81
2023/05/28 03:49:28;;;;;;;0.10;0.10;;;13.30;99.90;;;;;;5076923;28;20213;-81
2023/05/28 03:51:54;;;;;;;0.10;0.10;;;13.80;99.90;;;;;;5077905;28;20182;-81
2023/05/28 03:54:19;;;;;;;0.10;0.10;;;14.30;99.90;;;;;;5078573;28;20218;-81
2023/05/28 03:56:45;;;;;;;0.10;0.10;;;14.50;99.90;;;;;;5076325;28;20271;-81
2023/05/28 03:59:10;;;;;;;0.00;0.00;;;14.70;99.90;;;;;;5078072;28;20274;-81
2023/05/28 04:01:36;;;;;;;0.10;0.10;;;14.70;99.90;;;;;;5077157;28;20266;-81
2023/05/28 04:04:03;;;;;;;0.10;0.10;;;14.80;99.90;;;;;;5077786;28;20207;-81
2023/05/28 04:06:28;;;;;;;0.10;0.10;;;15.00;99.90;;;;;;5075940;28;20294;-82
2023/05/28 04:08:55;;;;;;;0.10;0.10;;;15.30;99.90;;;;;;5075716;28;20191;-81
2023/05/28 04:11:24;;;;;;;0.10;0.10;;;15.50;99.90;;;;;;5075842;28;20188;-81
2023/05/28 04:13:52;;;;;;;0.10;0.10;;;15.90;99.90;;;;;;5077575;28;20204;-81
2023/05/28 04:16:22;;;;;;;0.10;0.10;;;16.00;99.90;;;;;;5075552;28;20183;-81
2023/05/28 04:18:51;;;;;;;0.10;0.10;;;15.90;99.90;;;;;;5075382;28;20179;-81
2023/05/28 04:21:17;;;;;;;0.10;0.10;;;16.00;99.90;;;;;;5076882;28;20184;-81
2023/05/28 04:23:42;;;;;;;0.10;0.10;;;16.00;99.90;;;;;;5076141;28;20215;-81
2023/05/28 04:26:09;;;;;;;0.10;0.10;;;16.00;99.90;;;;;;5075552;28;20186;-81
2023/05/28 04:28:35;;;;;;;0.10;0.10;;;16.00;99.90;;;;;;5075922;28;20187;-81
2023/05/28 04:31:01;;;;;;;0.10;0.10;;;15.80;99.90;;;;;;5076537;28;20196;-82
2023/05/28 04:33:30;;;;;;;0.10;0.10;;;15.40;99.90;;;;;;5076749;28;20629;-81
2023/05/28 04:35:57;;;;;;;0.10;0.10;;;15.10;99.90;;;;;;5077072;28;20176;-81
2023/05/28 04:38:23;;;;;;;0.10;0.10;;;14.90;99.90;;;;;;5075909;28;20183;-81
2023/05/28 04:40:49;;;;;;;0.10;0.10;;;14.70;99.90;;;;;;5073185;28;20185;-82
2023/05/28 04:43:15;;;;;;;0.10;0.10;;;14.40;99.90;;;;;;5075535;28;20680;-82
2023/05/28 04:45:41;;;;;;;0.10;0.10;;;14.20;99.90;;;;;;5073053;28;20189;-82
2023/05/28 04:48:07;;;;;;;0.10;0.10;;;14.00;99.90;;;;;;5078864;28;20248;-82
2023/05/28 04:50:33;;;;;;;0.10;0.10;;;13.90;99.90;;;;;;5078114;28;20210;-82
2023/05/28 04:52:58;;;;;;;0.10;0.10;;;13.90;99.90;;;;;;5077251;28;20207;-82
2023/05/28 04:55:24;;;;;;;0.10;0.10;;;14.00;99.90;;;;;;5074894;28;20184;-81
2023/05/28 04:57:50;;;;;;;0.00;0.00;;;14.00;99.90;;;;;;5076039;28;20209;-82
2023/05/28 05:00:15;;;;;;;0.10;0.10;;;14.00;99.90;;;;;;5076456;28;20191;-81
2023/05/28 05:02:41;;;;;;;0.10;0.10;;;14.10;99.90;;;;;;5074756;28;20220;-80
2023/05/28 05:05:07;;;;;;;0.10;0.10;;;14.10;99.90;;;;;;5075764;28;20191;-81
2023/05/28 05:07:37;;;;;;;0.00;0.00;;;14.20;99.90;;;;;;5075457;28;20200;-80
2023/05/28 05:10:07;;;;;;;0.10;0.10;;;14.30;99.90;;;;;;5073790;28;20212;-81
2023/05/28 05:12:33;;;;;;;0.10;0.10;;;14.50;99.90;;;;;;5073199;28;20215;-80
2023/05/28 05:14:59;;;;;;;0.10;0.10;;;14.80;99.90;;;;;;5075804;28;20187;-81
2023/05/28 05:17:24;;;;;;;0.10;0.10;;;15.10;99.90;;;;;;5073868;28;20590;-81
2023/05/28 05:19:50;;;;;;;0.10;0.10;;;15.30;99.90;;;;;;5074309;28;20191;-82
2023/05/28 05:22:15;;;;;;;0.10;0.10;;;15.20;99.90;;;;;;5075099;28;20281;-84
2023/05/28 05:24:41;;;;;;;0.10;0.10;;;15.30;99.90;;;;;;5070657;28;20200;-84
2023/05/28 05:27:06;;;;;;;0.10;0.10;;;15.50;99.90;;;;;;5070594;28;20642;-86
2023/05/28 05:29:32;;;;;;;0.10;0.10;;;15.80;99.90;;;;;;5072113;28;20213;-82
2023/05/28 05:31:58;;;;;;;0.10;0.10;;;16.00;99.90;;;;;;5073594;28;20242;-82
2023/05/28 05:34:24;;;;;;;0.10;0.10;;;16.20;99.90;;;;;;5070015;28;20280;-82
2023/05/28 05:36:49;;;;;;;0.10;0.10;;;16.30;99.90;;;;;;5071394;28;20248;-81
2023/05/28 05:39:15;;;;;;;0.10;0.10;;;16.30;99.90;;;;;;5073935;28;20257;-82
2023/05/28 05:41:41;;;;;;;0.10;0.10;;;16.40;99.90;;;;;;5076924;28;20184;-81
2023/05/28 05:44:06;;;;;;;0.10;0.10;;;16.50;99.90;;;;;;5073644;28;20570;-82
2023/05/28 05:46:32;;;;;;;0.10;0.10;;;16.70;99.90;;;;;;5068110;28;20216;-82
2023/05/28 05:48:57;;;;;;;0.10;0.10;;;16.90;99.90;;;;;;5071913;28;20195;-83
2023/05/28 05:51:23;;;;;;;0.10;0.10;;;17.00;99.90;;;;;;5074033;28;20196;-83
2023/05/28 05:53:50;;;;;;;0.10;0.10;;;17.10;99.90;;;;;;5077747;28;20288;-83
2023/05/28 05:56:16;;;;;;;0.10;0.10;;;17.30;99.90;;;;;;5076059;28;20173;-83
2023/05/28 05:58:42;;;;;;;0.10;0.10;;;17.40;99.90;;;;;;5074882;28;20658;-83
2023/05/28 06:01:08;;;;;;;0.10;0.10;;;17.50;99.90;;;;;;5073519;28;20201;-83
2023/05/28 06:03:35;;;;;;;0.10;0.10;;;17.50;99.90;;;;;;5077356;28;20221;-83
2023/05/28 06:06:00;;;;;;;0.10;0.10;;;17.50;99.90;;;;;;5075005;28;20280;-83
2023/05/28 06:08:26;;;;;;;0.10;0.10;;;17.70;99.90;;;;;;5075752;28;20268;-82
2023/05/28 06:10:51;;;;;;;0.10;0.10;;;17.90;99.90;;;;;;5074929;28;20205;-83
2023/05/28 06:13:17;;;;;;;0.10;0.10;;;18.00;99.90;;;;;;5074944;28;20203;-83
2023/05/28 06:15:44;;;;;;;0.10;0.10;;;18.10;99.90;;;;;;5076346;28;20186;-83
2023/05/28 06:18:11;;;;;;;0.10;0.10;;;18.30;99.90;;;;;;5074982;28;20274;-84
2023/05/28 06:20:36;;;;;;;0.10;0.10;;;18.40;99.90;;;;;;5075264;28;20199;-83
2023/05/28 06:23:02;;;;;;;0.10;0.10;;;18.50;99.90;;;;;;5073942;28;20203;-83
2023/05/28 06:25:28;;;;;;;0.10;0.10;;;18.30;99.90;;;;;;5073891;28;20189;-83
2023/05/28 06:27:53;;;;;;;0.10;0.10;;;17.90;99.90;;;;;;5076442;28;20560;-82
2023/05/28 06:30:19;;;;;;;0.10;0.10;;;18.10;99.90;;;;;;5072336;28;20213;-82
2023/05/28 06:32:45;;;;;;;0.10;0.10;;;18.40;99.90;;;;;;5074191;28;20287;-83
2023/05/28 06:35:10;;;;;;;0.10;0.10;;;18.40;99.90;;;;;;5073314;28;20570;-83
2023/05/28 06:37:36;;;;;;;0.10;0.10;;;18.50;99.90;;;;;;5070218;28;20287;-82
2023/05/28 06:40:05;;;;;;;0.10;0.10;;;18.90;99.90;;;;;;5074219;28;20192;-83
2023/05/28 06:42:31;;;;;;;0.10;0.10;;;18.80;99.90;;;;;;5073493;28;20285;-83
2023/05/28 06:44:58;;;;;;;0.10;0.10;;;19.10;99.90;;;;;;5072881;28;20657;-82
2023/05/28 06:47:23;;;;;;;0.10;0.10;;;19.30;99.90;;;;;;5074689;28;20270;-83
2023/05/28 06:49:49;;;;;;;0.10;0.10;;;19.50;99.90;;;;;;5075625;28;20207;-82
2023/05/28 06:52:15;;;;;;;0.10;0.10;;;19.20;99.90;;;;;;5074903;28;20982;-83
2023/05/28 06:54:40;;;;;;;0.10;0.10;;;19.00;99.90;;;;;;5073067;28;20214;-83
2023/05/28 06:57:06;;;;;;;0.10;0.10;;;19.10;99.90;;;;;;5073301;28;20653;-83
2023/05/28 06:59:32;;;;;;;0.10;0.10;;;19.20;99.90;;;;;;5073006;28;20279;-82
2023/05/28 07:01:57;;;;;;;0.10;0.10;;;19.50;99.90;;;;;;5073558;28;20299;-83
2023/05/28 07:04:23;;;;;;;0.10;0.10;;;19.50;99.90;;;;;;5075845;28;20626;-83
2023/05/28 07:06:48;;;;;;;0.10;0.10;;;19.60;99.90;;;;;;5073118;28;20193;-82
2023/05/28 07:09:14;;;;;;;0.10;0.10;;;19.80;99.90;;;;;;5072843;28;20193;-83
2023/05/28 07:11:39;;;;;;;0.10;0.10;;;19.70;99.90;;;;;;5073588;28;20187;-83
2023/05/28 07:14:05;;;;;;;0.10;0.10;;;19.90;99.90;;;;;;5073468;28;20200;-82
2023/05/28 07:16:30;;;;;;;0.10;0.10;;;20.00;99.90;;;;;;5072267;28;20208;-83
2023/05/28 07:18:56;;;;;;;0.10;0.10;;;19.90;99.90;;;;;;5073719;28;20191;-83
2023/05/28 07:21:21;;;;;;;0.10;0.10;;;20.10;99.90;;;;;;5074101;28;20185;-82
2023/05/28 07:23:47;;;;;;;0.10;0.10;;;19.80;99.90;;;;;;5073339;28;20211;-82
2023/05/28 07:26:12;;;;;;;0.10;0.10;;;19.90;99.90;;;;;;5073835;28;20219;-83
2023/05/28 07:28:38;;;;;;;0.10;0.10;;;19.80;99.90;;;;;;5073685;28;20279;-84
2023/05/28 07:31:04;;;;;;;0.10;0.10;;;19.70;99.90;;;;;;5074983;28;20227;-83
2023/05/28 07:33:30;;;;;;;0.10;0.10;;;19.70;99.90;;;;;;5071793;28;20769;-83
2023/05/28 07:35:56;;;;;;;0.10;0.10;;;20.20;99.90;;;;;;5074097;28;20295;-82
2023/05/28 07:38:21;;;;;;;0.10;0.10;;;20.20;99.90;;;;;;5073494;28;20585;-83
2023/05/28 07:40:47;;;;;;;0.10;0.10;;;20.50;99.90;;;;;;5073493;28;20190;-82
2023/05/28 07:43:12;;;;;;;0.10;0.10;;;20.60;99.90;;;;;;5076822;28;20234;-83
2023/05/28 07:45:38;;;;;;;0.10;0.10;;;20.80;99.90;;;;;;5072722;28;20669;-82
2023/05/28 07:48:03;;;;;;;0.10;0.10;;;20.50;99.90;;;;;;5073935;28;20214;-83
2023/05/28 07:50:29;;;;;;;0.10;0.10;;;20.40;99.90;;;;;;5075786;28;20216;-83
2023/05/28 07:52:55;;;;;;;0.10;0.10;;;20.60;99.90;;;;;;5074963;28;20544;-83
2023/05/28 07:55:21;;;;;;;0.10;0.10;;;21.00;99.90;;;;;;5073242;28;20165;-83
2023/05/28 07:57:46;;;;;;;0.10;0.10;;;21.50;99.90;;;;;;5074009;28;20548;-82
2023/05/28 08:00:15;;;;;;;0.10;0.10;;;21.80;99.90;;;;;;5073314;28;20181;-83
2023/05/28 08:02:44;;;;;;;0.10;0.10;;;22.10;99.90;;;;;;5073162;28;20227;-83
2023/05/28 08:05:10;;;;;;;0.10;0.10;;;22.20;99.90;;;;;;5074313;28;20188;-83
2023/05/28 08:07:35;;;;;;;0.10;0.10;;;22.20;99.90;;;;;;5074061;28;20189;-83
2023/05/28 08:10:01;;;;;;;0.10;0.10;;;22.10;99.90;;;;;;5071998;28;20193;-83
2023/05/28 08:12:27;;;;;;;0.10;0.10;;;22.40;99.90;;;;;;5072984;28;20216;-84
2023/05/28 08:14:53;;;;;;;0.10;0.10;;;22.60;99.90;;;;;;5072854;28;20664;-83
2023/05/28 08:17:22;;;;;;;0.10;0.10;;;22.80;99.90;;;;;;5072936;28;20184;-83
2023/05/28 08:19:47;;;;;;;0.10;0.10;;;22.50;99.90;;;;;;5072377;28;20299;-83
2023/05/28 08:22:13;;;;;;;0.10;0.10;;;22.70;99.90;;;;;;5072746;28;20620;-83
2023/05/28 08:24:39;;;;;;;0.10;0.10;;;22.90;99.90;;;;;;5072773;28;21058;-83
2023/05/28 08:27:05;;;;;;;0.10;0.10;;;23.10;99.90;;;;;;5074569;28;20229;-84
2023/05/28 08:29:30;;;;;;;0.10;0.10;;;23.20;99.90;;;;;;5071555;28;20291;-84
2023/05/28 08:31:57;;;;;;;0.10;0.10;;;23.50;99.90;;;;;;5069398;28;20208;-83
2023/05/28 08:34:23;;;;;;;0.10;0.10;;;23.10;99.90;;;;;;5073655;28;20181;-86
2023/05/28 08:36:49;;;;;;;0.10;0.10;;;22.70;99.90;;;;;;5069731;28;20249;-82
2023/05/28 08:39:15;;;;;;;0.10;0.10;;;22.70;99.90;;;;;;5076254;28;20176;-82
2023/05/28 08:41:40;;;;;;;0.10;0.10;;;23.00;99.90;;;;;;5075370;28;20222;-82
2023/05/28 08:44:06;;;;;;;0.10;0.10;;;22.60;99.90;;;;;;5076307;28;20255;-82
2023/05/28 08:46:32;;;;;;;0.10;0.10;;;22.80;99.90;;;;;;5074528;28;20189;-82
2023/05/28 08:48:58;;;;;;;0.10;0.10;;;22.50;99.90;;;;;;5074196;28;20204;-82
2023/05/28 08:51:26;;;;;;;0.10;0.10;;;22.70;99.90;;;;;;5075315;28;20295;-82
2023/05/28 08:53:53;;;;;;;0.10;0.10;;;22.60;99.90;;;;;;5075143;28;20693;-82
2023/05/28 08:56:20;;;;;;;0.10;0.10;;;22.80;99.90;;;;;;5076443;28;20180;-82
2023/05/28 08:58:46;;;;;;;0.10;0.10;;;22.60;99.90;;;;;;5076123;28;20180;-83
2023/05/28 09:01:12;;;;;;;0.10;0.10;;;22.10;99.90;;;;;;5073777;28;20303;-82
2023/05/28 09:03:39;;;;;;;0.10;0.10;;;22.90;99.90;;;;;;5074777;28;20295;-83
2023/05/28 09:06:06;;;;;;;0.10;0.10;;;23.00;99.90;;;;;;5077497;28;20634;-82
2023/05/28 09:08:32;;;;;;;0.10;0.10;;;22.70;99.90;;;;;;5074650;28;20525;-82
2023/05/28 09:11:08;;;;;;;0.10;0.10;;;23.00;99.90;;;;;;5075871;28;20209;-82
2023/05/28 09:13:33;;;;;;;0.10;0.10;;;23.00;99.90;;;;;;5076261;28;20227;-82
2023/05/28 09:15:59;;;;;;;0.10;0.10;;;23.40;99.90;;;;;;5075811;28;20195;-82
2023/05/28 09:18:25;;;;;;;0.10;0.10;;;23.30;99.90;;;;;;5075894;28;20184;-82
2023/05/28 09:20:51;;;;;;;0.10;0.10;;;23.70;99.90;;;;;;5076365;28;20176;-83
2023/05/28 09:23:18;;;;;;;0.10;0.10;;;24.20;99.90;;;;;;5076912;28;20224;-82
2023/05/28 09:25:44;;;;;;;0.10;0.10;;;23.40;99.90;;;;;;5075758;28;20493;-82
2023/05/28 09:28:12;;;;;;;0.10;0.10;;;23.80;99.90;;;;;;5078243;28;20275;-82
2023/05/28 09:30:38;;;;;;;0.10;0.10;;;24.30;99.90;;;;;;5083848;28;20196;-82
2023/05/28 09:33:05;;;;;;;0.10;0.10;;;24.40;99.90;;;;;;5077196;28;20228;-82
2023/05/28 09:35:31;;;;;;;0.10;0.10;;;23.80;99.90;;;;;;5078858;28;20199;-83
2023/05/28 09:38:15;;;;;;;0.10;0.10;;;23.90;99.90;;;;;;5079021;28;20185;-82
2023/05/28 09:40:42;;;;;;;0.10;0.10;;;23.80;99.90;;;;;;5078022;28;20248;-82
2023/05/28 09:43:08;;;;;;;0.10;0.10;;;24.30;99.90;;;;;;5078862;28;20207;-82
2023/05/28 09:45:34;;;;;;;0.10;0.10;;;24.50;99.90;;;;;;5073674;28;20199;-82
2023/05/28 09:48:00;;;;;;;0.10;0.10;;;24.20;99.90;;;;;;5075101;28;20188;-82
2023/05/28 09:50:26;;;;;;;0.10;0.10;;;24.50;99.90;;;;;;5076407;28;20617;-83
2023/05/28 09:52:55;;;;;;;0.10;0.10;;;24.80;99.90;;;;;;5072828;28;20200;-83
2023/05/28 09:55:27;;;;;;;0.10;0.10;;;25.20;99.90;;;;;;5073784;28;20664;-83
2023/05/28 09:58:04;;;;;;;0.10;0.10;;;24.70;99.90;;;;;;5073299;28;20690;-83
2023/05/28 10:00:42;;;;;;;0.10;0.10;;;24.40;99.90;;;;;;5071448;28;20279;-82
2023/05/28 10:03:22;;;;;;;0.10;0.10;;;23.80;99.90;;;;;;5074570;28;20212;-82
2023/05/28 10:05:51;;;;;;;0.10;0.10;;;24.10;99.90;;;;;;5095055;28;20564;-82
2023/05/28 10:08:19;;;;;;;0.10;0.10;;;24.20;99.90;;;;;;5092259;28;20181;-83
2023/05/28 10:10:52;;;;;;;0.10;0.10;;;24.60;99.90;;;;;;5074420;28;20665;-83
2023/05/28 10:13:18;;;;;;;0.10;0.10;;;23.90;99.90;;;;;;5074099;28;20267;-82
2023/05/28 10:15:45;;;;;;;0.10;0.10;;;24.30;99.90;;;;;;5089714;28;20183;-82
2023/05/28 10:18:14;;;;;;;0.10;0.10;;;24.80;99.90;;;;;;5074458;28;20288;-83
2023/05/28 10:20:40;;;;;;;0.10;0.10;;;24.80;99.90;;;;;;5082845;28;20269;-83
2023/05/28 10:23:07;;;;;;;0.10;0.10;;;25.20;99.90;;;;;;5074408;28;20231;-83
2023/05/28 10:25:33;;;;;;;0.10;0.10;;;25.40;99.90;;;;;;5072795;28;20497;-82
2023/05/28 10:28:03;;;;;;;0.10;0.10;;;25.60;99.90;;;;;;5073313;28;20686;-83
2023/05/28 10:30:36;;;;;;;0.10;0.10;;;26.00;99.90;;;;;;5074369;28;20240;-83
2023/05/28 10:33:10;;;;;;;0.10;0.10;;;25.40;99.90;;;;;;5073654;28;20222;-82
2023/05/28 10:35:49;;;;;;;0.10;0.10;;;25.80;99.90;;;;;;5073015;28;20209;-83
2023/05/28 10:38:15;;;;;;;0.10;0.10;;;26.10;99.90;;;;;;5074306;28;20261;-83
2023/05/28 10:40:40;;;;;;;0.10;0.10;;;25.90;99.90;;;;;;5075342;28;20250;-83
2023/05/28 10:43:38;;;;;;;0.10;0.10;;;26.20;99.90;;;;;;5073376;28;20201;-83
2023/05/28 10:46:08;;;;;;;0.10;0.10;;;26.30;99.90;;;;;;5074323;28;20189;-83
2023/05/28 10:48:38;;;;;;;0.10;0.10;;;25.60;99.90;;;;;;5074589;28;20188;-82
2023/05/28 10:51:05;;;;;;;0.10;0.10;;;25.80;99.90;;;;;;5076723;28;20607;-83
2023/05/28 10:53:31;;;;;;;0.10;0.10;;;25.60;99.90;;;;;;5075416;28;20204;-83
2023/05/28 10:55:56;;;;;;;0.10;0.10;;;25.60;99.90;;;;;;5073555;28;20176;-82
2023/05/28 10:58:48;;;;;;;0.10;0.10;;;25.00;99.90;;;;;;5073554;28;20187;-83
2023/05/28 11:01:19;;;;;;;0.10;0.10;;;25.30;99.90;;;;;;5071188;28;20304;-82
2023/05/28 11:03:52;;;;;;;0.10;0.10;;;25.00;99.90;;;;;;5073481;28;20232;-84
2023/05/28 11:06:18;;;;;;;0.10;0.10;;;24.50;99.90;;;;;;5072185;28;20173;-82
2023/05/28 11:08:46;;;;;;;0.10;0.10;;;24.70;99.90;;;;;;5074560;28;20218;-83
2023/05/28 11:11:14;;;;;;;0.10;0.10;;;24.90;99.90;;;;;;5074779;28;20211;-82
2023/05/28 11:13:48;;;;;;;0.10;0.10;;;24.70;99.90;;;;;;5076682;28;20205;-82
2023/05/28 11:16:16;;;;;;;0.10;0.10;;;24.80;99.90;;;;;;5079307;28;20181;-82
2023/05/28 11:19:04;;;;;;;0.10;0.10;;;25.00;99.90;;;;;;5078714;28;20184;-82
2023/05/28 11:21:32;;;;;;;0.10;0.10;;;25.40;99.90;;;;;;5074032;28;20210;-82
2023/05/28 11:24:02;;;;;;;6.13;5.93;;;25.30;99.90;;;;;;5077646;28;20209;-82
2023/05/28 11:26:27;;;;;;;0.10;0.10;;;25.30;99.90;;;;;;5075494;28;20282;-83
2023/05/28 11:28:53;;;;;;;0.10;0.10;;;25.50;99.90;;;;;;5078158;28;20218;-82
2023/05/28 11:31:19;;;;;;;0.10;0.10;;;25.50;99.90;;;;;;5076721;28;20216;-82
2023/05/28 11:33:48;;;;;;;0.10;0.10;;;25.20;99.90;;;;;;5076769;28;20661;-83
2023/05/28 11:36:14;;;;;;;0.10;0.10;;;24.80;99.90;;;;;;5076169;28;20185;-83
2023/05/28 11:38:40;;;;;;;0.10;0.10;;;25.40;99.90;;;;;;5073966;28;20199;-83
2023/05/28 11:41:05;;;;;;;0.10;0.10;;;25.90;99.90;;;;;;5076233;28;20583;-82
2023/05/28 11:43:31;;;;;;;0.10;0.10;;;26.40;99.90;;;;;;5072380;28;20205;-82
2023/05/28 11:46:01;;;;;;;0.10;0.10;;;26.70;99.90;;;;;;5077541;28;20690;-82
2023/05/28 11:48:27;;;;;;;0.10;0.10;;;26.00;99.90;;;;;;5074362;28;20196;-82
2023/05/28 11:51:03;;;;;;;0.10;0.10;;;25.90;99.90;;;;;;5075689;28;20553;-82
2023/05/28 11:53:41;;;;;;;0.10;0.10;;;26.50;99.90;;;;;;5077144;28;20204;-83
2023/05/28 11:56:08;;;;;;;0.10;0.10;;;26.90;99.90;;;;;;5079367;28;20198;-82
2023/05/28 11:58:37;;;;;;;0.10;0.10;;;27.10;99.90;;;;;;5080627;28;20177;-82
2023/05/28 12:01:04;;;;;;;0.10;0.10;;;27.00;99.90;;;;;;5078119;28;20204;-82
2023/05/28 12:03:29;;;;;;;0.10;0.10;;;26.90;99.90;;;;;;5077465;28;20211;-82
2023/05/28 12:05:55;;;;;;;0.10;0.10;;;25.80;99.90;;;;;;5075376;28;20189;-82
2023/05/28 12:08:20;;;;;;;0.10;0.10;;;26.20;99.90;;;;;;5078433;28;20634;-82
2023/05/28 12:10:46;;;;;;;0.10;0.10;;;26.20;99.90;;;;;;5076013;28;20770;-82
2023/05/28 12:13:13;;;;;;;0.10;0.10;;;25.70;99.90;;;;;;5077414;28;20193;-82
2023/05/28 12:15:39;;;;;;;0.10;0.10;;;26.10;99.90;;;;;;5076619;28;20189;-82
2023/05/28 12:18:04;;;;;;;0.10;0.10;;;26.10;99.90;;;;;;5076988;28;20181;-82
2023/05/28 12:20:30;;;;;;;0.10;0.10;;;26.30;99.90;;;;;;5074031;28;20236;-82
2023/05/28 12:23:14;;;;;;;0.10;0.10;;;26.20;99.90;;;;;;5076907;28;20234;-82
2023/05/28 12:25:42;;;;;;;0.10;0.10;;;26.80;99.90;;;;;;5074836;28;20200;-82
2023/05/28 12:28:08;;;;;;;0.10;0.10;;;26.40;99.90;;;;;;5079121;28;20264;-83
2023/05/28 12:30:34;;;;;;;0.10;0.10;;;26.60;99.90;;;;;;5076161;28;20299;-82
2023/05/28 12:33:00;;;;;;;2.92;2.83;;;26.20;99.90;;;;;;5075950;28;20658;-82
2023/05/28 12:35:26;;;;;;;0.10;0.10;;;26.20;99.90;;;;;;5093401;28;20184;-82
2023/05/28 12:37:51;;;;;;;0.10;0.10;;;26.60;99.90;;;;;;5077538;28;20624;-82
2023/05/28 12:40:17;;;;;;;0.10;0.10;;;26.80;99.90;;;;;;5076915;28;20184;-82
2023/05/28 12:42:42;;;;;;;0.10;0.10;;;26.80;99.90;;;;;;5076550;28;20216;-82
2023/05/28 12:45:09;;;;;;;0.10;0.10;;;26.40;99.90;;;;;;5076322;28;20227;-82
2023/05/28 12:47:34;;;;;;;0.35;0.35;;;25.50;99.90;;;;;;5075297;28;20204;-83